createdAt,value
2022-09-06T00:00:40.378Z,3.50
2022-09-06T00:03:42.703Z,3.90
2022-09-06T00:06:44.333Z,3.90
2022-09-06T00:09:46.004Z,3.90
2022-09-06T00:12:47.919Z,4.05
2022-09-06T00:15:49.549Z,4.20
2022-09-06T00:18:55.150Z,4.50
2022-09-06T00:21:56.746Z,4.43
2022-09-06T00:24:58.386Z,5.18
2022-09-06T00:28:03.001Z,5.45
2022-09-06T00:31:24.940Z,5.93
2022-09-06T00:34:27.831Z,5.38
2022-09-06T00:37:29.574Z,5.75
2022-09-06T00:40:33.962Z,5.80
2022-09-06T00:43:36.068Z,6.68
2022-09-06T00:46:42.091Z,6.20
2022-09-06T00:49:52.254Z,6.65
2022-09-06T00:52:54.616Z,6.43
2022-09-06T00:55:56.841Z,6.28
2022-09-06T00:59:00.160Z,7.03
2022-09-06T01:02:01.874Z,5.80
2022-09-06T01:05:04.827Z,6.40
2022-09-06T01:08:13.649Z,5.65
2022-09-06T01:11:21.539Z,5.53
2022-09-06T01:14:42.792Z,5.20
2022-09-06T01:18:02.917Z,5.32
2022-09-06T01:21:36.073Z,5.38
2022-09-06T01:24:55.705Z,5.18
2022-09-06T01:28:30.049Z,5.23
2022-09-06T01:31:35.418Z,4.93
2022-09-06T01:34:47.871Z,4.47
2022-09-06T01:37:49.760Z,4.35
2022-09-06T01:40:51.420Z,4.05
2022-09-06T01:43:54.471Z,3.85
2022-09-06T01:47:04.813Z,4.22
2022-09-06T01:50:28.031Z,3.78
2022-09-06T01:53:32.601Z,3.83
2022-09-06T01:56:43.207Z,4.43
2022-09-06T02:00:05.797Z,3.65
2022-09-06T02:03:30.010Z,3.97
2022-09-06T02:06:38.797Z,4.47
2022-09-06T02:09:42.657Z,4.32
2022-09-06T02:12:47.533Z,3.97
2022-09-06T02:15:56.122Z,4.50
2022-09-06T02:19:20.111Z,4.90
2022-09-06T02:22:27.238Z,5.10
2022-09-06T02:25:38.492Z,4.70
2022-09-06T02:28:40.350Z,5.05
2022-09-06T02:31:50.565Z,4.78
2022-09-06T02:34:57.034Z,4.30
2022-09-06T02:37:59.053Z,5.85
2022-09-06T02:41:01.166Z,5.63
2022-09-06T02:44:04.027Z,5.18
2022-09-06T02:47:05.999Z,5.53
2022-09-06T02:50:08.307Z,5.30
2022-09-06T02:53:14.501Z,5.65
2022-09-06T02:56:16.152Z,5.68
2022-09-06T02:59:17.765Z,5.55
2022-09-06T03:02:19.383Z,5.07
2022-09-06T03:05:21.366Z,5.55
2022-09-06T03:08:26.123Z,5.05
2022-09-06T03:11:28.373Z,4.80
2022-09-06T03:14:29.988Z,5.80
2022-09-06T03:17:31.570Z,5.72
2022-09-06T03:20:36.956Z,5.47
2022-09-06T03:23:39.478Z,5.78
2022-09-06T03:26:41.134Z,5.97
2022-09-06T03:29:42.757Z,5.55
2022-09-06T03:32:45.090Z,5.57
2022-09-06T03:35:58.870Z,5.07
2022-09-06T03:39:00.550Z,5.70
2022-09-06T03:42:02.396Z,5.38
2022-09-06T03:45:05.645Z,5.50
2022-09-06T03:48:07.229Z,5.15
2022-09-06T03:51:08.836Z,5.75
2022-09-06T03:54:10.542Z,5.40
2022-09-06T03:57:12.182Z,5.97
2022-09-06T04:00:14.468Z,5.68
2022-09-06T04:03:19.303Z,5.25
2022-09-06T04:06:21.105Z,5.63
2022-09-06T04:09:22.815Z,5.97
2022-09-06T04:12:24.518Z,5.93
2022-09-06T04:15:26.146Z,5.50
2022-09-06T04:18:28.310Z,5.55
2022-09-06T04:21:30.659Z,6.22
2022-09-06T04:24:32.286Z,5.70
2022-09-06T04:27:34.305Z,5.80
2022-09-06T04:30:35.949Z,5.82
2022-09-06T04:33:38.342Z,6.28
2022-09-06T04:36:40.005Z,5.78
2022-09-06T04:39:41.660Z,5.72
2022-09-06T04:42:43.366Z,5.03
2022-09-06T04:45:45.468Z,6.55
2022-09-06T04:48:50.785Z,5.43
2022-09-06T04:51:52.418Z,5.93
2022-09-06T04:54:54.021Z,6.20
2022-09-06T04:57:56.660Z,6.68
2022-09-06T05:00:58.458Z,6.30
2022-09-06T05:04:00.080Z,6.28
2022-09-06T05:07:08.162Z,6.22
2022-09-06T05:10:12.737Z,6.60
2022-09-06T05:13:14.640Z,6.45
2022-09-06T05:16:17.032Z,6.20
2022-09-06T05:19:19.320Z,6.93
2022-09-06T05:22:21.041Z,6.32
2022-09-06T05:25:23.031Z,6.90
2022-09-06T05:28:24.891Z,6.47
2022-09-06T05:31:31.681Z,6.25
2022-09-06T05:34:33.393Z,6.28
2022-09-06T05:37:35.009Z,6.68
2022-09-06T05:40:36.810Z,6.18
2022-09-06T05:43:38.562Z,5.68
2022-09-06T05:46:45.127Z,6.10
2022-09-06T05:49:46.890Z,6.00
2022-09-06T05:52:48.510Z,6.63
2022-09-06T05:55:50.252Z,5.93
2022-09-06T05:58:52.020Z,5.70
2022-09-06T06:01:54.377Z,5.47
2022-09-06T06:04:58.356Z,5.88
2022-09-06T06:08:00.179Z,5.90
2022-09-06T06:11:02.446Z,5.53
2022-09-06T06:14:04.733Z,5.32
2022-09-06T06:17:07.017Z,5.53
2022-09-06T06:20:09.871Z,5.35
2022-09-06T06:23:12.029Z,5.03
2022-09-06T06:26:14.176Z,5.70
2022-09-06T06:29:15.832Z,4.80
2022-09-06T06:32:17.450Z,4.72
2022-09-06T06:35:19.014Z,4.90
2022-09-06T06:38:20.596Z,4.63
2022-09-06T06:41:25.159Z,4.47
2022-09-06T06:44:28.183Z,4.22
2022-09-06T06:47:29.769Z,4.90
2022-09-06T06:50:31.420Z,4.00
2022-09-06T06:53:33.012Z,4.03
2022-09-06T06:56:40.689Z,4.57
2022-09-06T06:59:42.329Z,4.40
2022-09-06T07:02:43.968Z,4.03
2022-09-06T07:09:10.039Z,3.78
2022-09-06T07:12:11.666Z,3.85
2022-09-06T07:15:13.968Z,3.42
2022-09-06T07:18:16.449Z,3.40
2022-09-06T07:21:41.913Z,3.38
2022-09-06T07:24:43.628Z,2.83
2022-09-06T07:30:55.114Z,2.67
2022-09-06T07:33:56.770Z,2.60
2022-09-06T07:36:58.359Z,2.88
2022-09-06T07:40:00.663Z,2.40
2022-09-06T07:43:02.404Z,2.40
2022-09-06T07:46:06.455Z,2.58
2022-09-06T07:49:08.086Z,2.20
2022-09-06T07:55:31.297Z,2.60
2022-09-06T07:58:33.744Z,2.13
2022-09-06T08:01:37.478Z,2.55
2022-09-06T08:04:40.991Z,2.10
2022-09-06T08:07:42.585Z,2.35
2022-09-06T08:10:44.278Z,2.40
2022-09-06T08:13:50.274Z,2.85
2022-09-06T08:16:51.934Z,1.85
2022-09-06T08:19:53.545Z,2.08
2022-09-06T08:22:55.107Z,1.98
2022-09-06T08:25:59.969Z,2.15
2022-09-06T08:29:05.801Z,1.92
2022-09-06T08:32:07.402Z,2.05
2022-09-06T08:35:09.853Z,2.17
2022-09-06T08:38:11.520Z,2.22
2022-09-06T08:41:49.710Z,2.08
2022-09-06T08:47:59.567Z,2.30
2022-09-06T08:51:38.582Z,1.90
2022-09-06T08:54:48.106Z,1.80
2022-09-06T08:58:15.656Z,1.87
2022-09-06T09:01:27.274Z,1.92
2022-09-06T09:04:30.474Z,2.00
2022-09-06T09:07:51.580Z,1.55
2022-09-06T09:11:02.772Z,1.90
2022-09-06T09:14:26.722Z,1.67
2022-09-06T09:17:31.272Z,1.60
2022-09-06T09:20:33.014Z,1.70
2022-09-06T09:23:34.964Z,1.80
2022-09-06T09:26:55.501Z,1.92
2022-09-06T09:33:29.492Z,1.80
2022-09-06T09:36:33.016Z,1.60
2022-09-06T09:39:40.068Z,1.88
2022-09-06T09:42:41.899Z,1.40
2022-09-06T09:45:44.313Z,1.73
2022-09-06T09:49:10.515Z,1.50
2022-09-06T09:52:14.479Z,1.52
2022-09-06T09:55:16.128Z,1.52
2022-09-06T09:58:26.733Z,1.48
2022-09-06T10:01:35.845Z,1.58
2022-09-06T10:04:44.856Z,1.50
2022-09-06T10:07:47.281Z,1.70
2022-09-06T10:10:49.442Z,1.80
2022-09-06T10:14:11.155Z,2.00
2022-09-06T10:17:29.957Z,1.70
2022-09-06T10:21:05.493Z,1.73
2022-09-06T10:24:33.824Z,1.80
2022-09-06T10:27:45.736Z,1.70
2022-09-06T10:31:27.279Z,2.00
2022-09-06T10:34:32.251Z,1.83
2022-09-06T10:37:47.414Z,1.70
2022-09-06T10:41:10.477Z,1.95
2022-09-06T10:44:33.564Z,2.00
2022-09-06T10:47:54.449Z,2.15
2022-09-06T10:50:59.011Z,1.75
2022-09-06T10:54:00.636Z,2.25
2022-09-06T10:57:08.931Z,2.25
2022-09-06T11:00:13.618Z,1.73
2022-09-06T11:04:01.962Z,2.13
2022-09-06T11:07:36.304Z,1.50
2022-09-06T11:10:45.299Z,1.48
2022-09-06T11:13:47.471Z,1.60
2022-09-06T11:17:05.132Z,1.40
2022-09-06T11:20:16.175Z,1.85
2022-09-06T11:23:45.116Z,1.75
2022-09-06T11:27:23.017Z,1.60
2022-09-06T11:30:26.255Z,1.65
2022-09-06T11:33:39.633Z,1.90
2022-09-06T11:37:08.490Z,1.90
2022-09-06T11:43:46.738Z,1.83
2022-09-06T11:46:48.516Z,1.70
2022-09-06T11:49:50.313Z,1.80
2022-09-06T11:53:15.039Z,1.80
2022-09-06T11:56:39.673Z,1.70
2022-09-06T12:00:04.170Z,1.77
2022-09-06T12:07:11.343Z,2.10
2022-09-06T12:10:31.166Z,2.60
2022-09-06T12:13:54.886Z,1.80
2022-09-06T12:17:00.286Z,1.85
2022-09-06T12:20:06.820Z,2.35
2022-09-06T12:23:08.679Z,1.92
2022-09-06T12:26:12.042Z,1.98
2022-09-06T12:29:14.438Z,2.75
2022-09-06T12:32:39.139Z,2.10
2022-09-06T12:35:56.417Z,2.10
2022-09-06T12:39:06.147Z,2.22
2022-09-06T12:42:12.500Z,2.58
2022-09-06T12:45:14.897Z,2.25
2022-09-06T12:48:29.523Z,2.10
2022-09-06T12:51:31.810Z,2.30
2022-09-06T12:54:33.454Z,2.83
2022-09-06T12:57:35.220Z,2.00
2022-09-06T13:00:40.552Z,2.25
2022-09-06T13:03:56.743Z,2.45
2022-09-06T13:07:00.736Z,2.30
2022-09-06T13:10:03.335Z,2.20
2022-09-06T13:13:07.543Z,2.13
2022-09-06T13:16:09.433Z,2.33
2022-09-06T13:19:36.839Z,2.50
2022-09-06T13:22:41.081Z,2.53
2022-09-06T13:25:51.125Z,2.30
2022-09-06T13:31:56.982Z,2.63
2022-09-06T13:35:00.142Z,2.47
2022-09-06T13:38:41.013Z,2.97
2022-09-06T13:41:44.118Z,2.60
2022-09-06T13:44:45.824Z,2.20
2022-09-06T13:47:59.973Z,2.70
2022-09-06T13:51:12.661Z,2.80
2022-09-06T13:54:15.617Z,2.65
2022-09-06T13:57:22.232Z,2.45
2022-09-06T14:00:25.930Z,2.25
2022-09-06T14:03:31.115Z,2.58
2022-09-06T14:06:36.671Z,2.47
2022-09-06T14:09:39.047Z,2.40
2022-09-06T14:12:40.731Z,2.40
2022-09-06T14:15:42.651Z,2.38
2022-09-06T14:18:45.158Z,3.17
2022-09-06T14:21:47.280Z,2.20
2022-09-06T14:24:49.098Z,3.67
2022-09-06T14:27:50.709Z,2.92
2022-09-06T14:30:53.133Z,3.60
2022-09-06T14:33:56.299Z,2.42
2022-09-06T14:36:57.966Z,2.28
2022-09-06T14:39:59.785Z,3.67
2022-09-06T14:43:03.134Z,3.47
2022-09-06T14:46:14.211Z,4.00
2022-09-06T14:49:16.136Z,2.42
2022-09-06T14:52:17.933Z,2.75
2022-09-06T14:55:20.633Z,2.20
2022-09-06T14:58:22.311Z,3.80
2022-09-06T15:01:28.646Z,2.70
2022-09-06T15:04:30.667Z,2.17
2022-09-06T15:07:32.480Z,2.97
2022-09-06T15:10:34.150Z,1.90
2022-09-06T15:13:40.352Z,2.75
2022-09-06T15:16:42.849Z,3.47
2022-09-06T15:19:49.137Z,2.13
2022-09-06T15:23:09.080Z,2.10
2022-09-06T15:26:15.589Z,1.80
2022-09-06T15:29:17.632Z,1.60
2022-09-06T15:32:20.293Z,1.60
2022-09-06T15:35:22.084Z,3.20
2022-09-06T15:38:24.851Z,2.40
2022-09-06T15:41:32.366Z,1.60
2022-09-06T15:44:34.281Z,1.80
2022-09-06T15:47:35.916Z,1.70
2022-09-06T15:50:50.331Z,2.05
2022-09-06T15:53:53.228Z,1.52
2022-09-06T15:56:56.739Z,1.80
2022-09-06T15:59:58.537Z,2.10
2022-09-06T16:03:00.318Z,1.70
2022-09-06T16:09:26.818Z,2.10
2022-09-06T16:12:28.521Z,1.52
2022-09-06T16:15:30.288Z,2.40
2022-09-06T16:18:33.411Z,2.10
2022-09-06T16:21:40.585Z,2.50
2022-09-06T16:24:42.394Z,4.90
2022-09-06T16:27:44.062Z,2.33
2022-09-06T16:30:46.181Z,2.30
2022-09-06T16:33:49.140Z,2.30
2022-09-06T16:36:50.892Z,2.78
2022-09-06T16:39:52.740Z,2.10
2022-09-06T16:42:54.510Z,1.90
2022-09-06T16:45:58.127Z,1.42
2022-09-06T16:49:01.457Z,1.60
2022-09-06T16:52:03.478Z,2.20
2022-09-06T16:55:05.686Z,1.50
2022-09-06T16:58:07.556Z,1.70
2022-09-06T17:01:10.555Z,1.85
2022-09-06T17:04:15.395Z,2.05
2022-09-06T17:07:27.925Z,2.33
2022-09-06T17:10:30.099Z,2.22
2022-09-06T17:13:32.251Z,1.98
2022-09-06T17:16:52.718Z,1.63
2022-09-06T17:19:54.563Z,1.80
2022-09-06T17:22:56.312Z,1.80
2022-09-06T17:26:01.319Z,2.00
2022-09-06T17:29:03.351Z,2.17
2022-09-06T17:32:09.917Z,2.30
2022-09-06T17:35:11.772Z,2.60
2022-09-06T17:38:14.359Z,2.10
2022-09-06T17:41:27.418Z,2.30
2022-09-06T17:44:29.567Z,2.40
2022-09-06T17:47:32.045Z,2.55
2022-09-06T17:50:34.583Z,2.10
2022-09-06T17:53:37.787Z,2.22
2022-09-06T17:56:40.534Z,2.13
2022-09-06T17:59:42.220Z,2.10
2022-09-06T18:02:44.331Z,2.35
2022-09-06T18:09:09.932Z,2.80
2022-09-06T18:12:11.902Z,2.95
2022-09-06T18:15:14.329Z,3.40
2022-09-06T18:24:58.182Z,3.42
2022-09-06T18:28:01.380Z,3.92
2022-09-06T18:37:41.620Z,7.53
2022-09-06T18:47:32.193Z,6.20
2022-09-06T18:50:38.943Z,5.88
2022-09-06T18:57:01.559Z,4.82
2022-09-06T19:00:05.829Z,5.05
2022-09-06T19:06:23.227Z,4.65
2022-09-06T19:09:24.960Z,4.90
2022-09-06T19:12:26.696Z,4.70
2022-09-06T19:15:28.481Z,4.47
2022-09-06T19:18:30.231Z,5.85
2022-09-06T19:21:33.525Z,5.18
2022-09-06T19:24:39.083Z,4.95
2022-09-06T19:27:40.761Z,4.63
2022-09-06T19:30:42.483Z,4.18
2022-09-06T19:33:45.917Z,4.50
2022-09-06T19:36:48.819Z,4.20
2022-09-06T19:39:50.669Z,4.03
2022-09-06T19:42:52.358Z,4.20
2022-09-06T19:45:56.860Z,4.13
2022-09-06T19:48:58.833Z,3.97
2022-09-06T19:52:01.945Z,3.78
2022-09-06T19:55:21.973Z,4.05
2022-09-06T19:58:26.056Z,4.03
2022-09-06T20:01:31.575Z,4.28
2022-09-06T20:04:33.731Z,4.35
2022-09-06T20:07:35.633Z,3.90
2022-09-06T20:10:37.578Z,3.88
2022-09-06T20:13:40.748Z,3.55
2022-09-06T20:19:58.927Z,3.83
2022-09-06T20:23:02.565Z,4.88
2022-09-06T20:26:11.270Z,6.10
2022-09-06T20:29:13.394Z,7.07
2022-09-06T20:32:15.300Z,7.13
2022-09-06T20:35:17.138Z,6.25
2022-09-06T20:38:18.974Z,4.55
2022-09-06T20:41:23.689Z,4.93
2022-09-06T20:44:26.694Z,4.07
2022-09-06T20:47:29.191Z,4.00
2022-09-06T20:50:42.391Z,3.40
2022-09-06T20:53:56.453Z,4.20
2022-09-06T20:56:59.596Z,3.40
2022-09-06T21:00:01.498Z,3.53
2022-09-06T21:03:06.422Z,3.20
2022-09-06T21:06:15.353Z,3.05
2022-09-06T21:09:17.573Z,3.50
2022-09-06T21:12:19.581Z,2.85
2022-09-06T21:15:21.603Z,3.03
2022-09-06T21:18:24.693Z,2.63
2022-09-06T21:21:32.349Z,2.88
2022-09-06T21:24:46.306Z,2.75
2022-09-06T21:27:50.660Z,2.70
2022-09-06T21:31:04.816Z,2.50
2022-09-06T21:34:16.194Z,2.90
2022-09-06T21:37:21.793Z,2.10
2022-09-06T21:40:34.945Z,2.40
2022-09-06T21:43:37.141Z,2.10
2022-09-06T21:46:39.902Z,2.20
2022-09-06T21:49:42.071Z,2.10
2022-09-06T21:52:46.454Z,2.15
2022-09-06T22:02:47.212Z,2.35
2022-09-06T22:15:51.735Z,2.20
2022-09-06T22:18:56.245Z,2.20
2022-09-06T22:22:04.889Z,1.92
2022-09-06T22:38:13.993Z,1.88
2022-09-06T22:41:16.298Z,2.35
2022-09-06T22:44:18.811Z,1.70
2022-09-06T22:47:21.289Z,1.80
2022-09-06T22:50:25.496Z,1.60
2022-09-06T22:53:33.395Z,1.83
2022-09-06T22:56:38.580Z,2.03
2022-09-06T23:02:59.855Z,1.80
2022-09-06T23:06:04.795Z,1.70
2022-09-06T23:09:12.418Z,1.83
2022-09-06T23:12:16.238Z,1.98
2022-09-06T23:15:23.066Z,1.58
2022-09-06T23:18:25.245Z,1.90
2022-09-06T23:21:29.470Z,1.48
2022-09-06T23:24:31.420Z,1.95
2022-09-06T23:27:34.169Z,1.73
2022-09-06T23:30:38.945Z,2.05
2022-09-06T23:33:44.729Z,1.67
2022-09-06T23:36:46.562Z,2.13
2022-09-06T23:39:54.613Z,4.13
2022-09-06T23:42:59.461Z,3.35
2022-09-06T23:46:01.373Z,2.40
2022-09-06T23:49:03.784Z,2.28
2022-09-06T23:52:08.201Z,2.40
2022-09-06T23:55:10.086Z,1.92
2022-09-06T23:58:12.538Z,2.00
